createdAt,value
2022-10-20T00:02:22.259Z,6.15
2022-10-20T00:04:49.033Z,5.75
2022-10-20T00:07:17.061Z,5.60
2022-10-20T00:09:44.098Z,5.80
2022-10-20T00:12:10.797Z,5.95
2022-10-20T00:14:38.813Z,6.35
2022-10-20T00:17:06.602Z,5.80
2022-10-20T00:19:33.508Z,6.05
2022-10-20T00:22:00.721Z,5.50
2022-10-20T00:24:29.225Z,5.45
2022-10-20T00:26:55.909Z,5.30
2022-10-20T00:29:22.687Z,6.22
2022-10-20T00:31:49.604Z,5.93
2022-10-20T00:34:16.296Z,5.90
2022-10-20T00:36:45.299Z,5.60
2022-10-20T00:39:14.128Z,5.63
2022-10-20T00:41:42.258Z,5.30
2022-10-20T00:44:41.988Z,5.90
2022-10-20T00:47:12.376Z,6.00
2022-10-20T00:49:39.725Z,5.53
2022-10-20T00:52:07.926Z,5.85
2022-10-20T00:54:34.886Z,5.55
2022-10-20T00:59:33.608Z,5.53
2022-10-20T01:02:02.297Z,5.80
2022-10-20T01:04:31.468Z,5.45
2022-10-20T01:06:59.057Z,5.22
2022-10-20T01:09:29.677Z,6.13
2022-10-20T01:12:08.003Z,5.72
2022-10-20T01:14:41.429Z,5.95
2022-10-20T01:17:17.833Z,5.57
2022-10-20T01:20:17.188Z,5.88
2022-10-20T01:23:12.414Z,5.63
2022-10-20T01:25:54.122Z,5.72
2022-10-20T01:28:27.492Z,6.15
2022-10-20T01:30:58.494Z,6.15
2022-10-20T01:33:32.868Z,6.30
2022-10-20T01:36:05.301Z,6.07
2022-10-20T01:38:39.340Z,6.40
2022-10-20T01:41:14.132Z,6.50
2022-10-20T01:43:45.927Z,6.82
2022-10-20T01:46:15.555Z,7.03
2022-10-20T01:48:43.735Z,6.28
2022-10-20T01:51:10.939Z,6.65
2022-10-20T01:53:37.625Z,6.50
2022-10-20T01:56:06.328Z,6.25
2022-10-20T01:58:58.213Z,6.57
2022-10-20T02:01:37.860Z,6.22
2022-10-20T02:04:07.286Z,6.97
2022-10-20T02:06:42.340Z,6.43
2022-10-20T02:09:16.699Z,5.88
2022-10-20T02:11:49.560Z,6.50
2022-10-20T02:14:20.261Z,6.28
2022-10-20T02:16:51.388Z,6.80
2022-10-20T02:19:25.385Z,6.63
2022-10-20T02:24:23.670Z,6.55
2022-10-20T02:26:52.591Z,6.60
2022-10-20T02:29:25.182Z,6.47
2022-10-20T02:31:51.937Z,7.97
2022-10-20T02:34:18.657Z,6.13
2022-10-20T02:36:45.468Z,6.63
2022-10-20T02:39:15.037Z,6.43
2022-10-20T02:41:41.712Z,6.38
2022-10-20T02:44:08.522Z,6.22
2022-10-20T02:46:36.562Z,6.40
2022-10-20T02:49:03.298Z,6.30
2022-10-20T02:51:29.975Z,6.95
2022-10-20T02:53:56.714Z,6.82
2022-10-20T02:56:25.392Z,7.28
2022-10-20T02:58:54.382Z,6.80
2022-10-20T03:01:22.440Z,7.07
2022-10-20T03:03:50.490Z,6.78
2022-10-20T03:06:17.590Z,7.28
2022-10-20T03:08:44.507Z,6.97
2022-10-20T03:11:11.268Z,6.75
2022-10-20T03:13:37.920Z,6.95
2022-10-20T03:16:04.668Z,6.57
2022-10-20T03:18:31.457Z,7.13
2022-10-20T03:20:59.427Z,6.85
2022-10-20T03:23:26.177Z,6.75
2022-10-20T03:25:52.869Z,7.07
2022-10-20T03:28:19.438Z,6.72
2022-10-20T03:30:47.209Z,7.30
2022-10-20T03:33:13.916Z,6.70
2022-10-20T03:35:40.759Z,7.22
2022-10-20T03:38:08.732Z,6.80
2022-10-20T03:40:35.455Z,6.75
2022-10-20T03:43:02.203Z,6.78
2022-10-20T03:45:29.456Z,6.80
2022-10-20T03:47:56.558Z,6.72
2022-10-20T03:50:23.222Z,6.82
2022-10-20T03:52:49.828Z,7.10
2022-10-20T03:55:19.063Z,6.75
2022-10-20T03:57:46.351Z,7.10
2022-10-20T04:00:13.185Z,6.43
2022-10-20T04:02:42.345Z,6.82
2022-10-20T04:05:10.824Z,7.05
2022-10-20T04:07:37.601Z,7.18
2022-10-20T04:10:04.722Z,6.90
2022-10-20T04:12:33.136Z,7.13
2022-10-20T04:15:00.476Z,7.13
2022-10-20T04:17:28.010Z,7.10
2022-10-20T04:19:55.595Z,6.65
2022-10-20T04:22:22.977Z,7.30
2022-10-20T04:24:49.677Z,6.45
2022-10-20T04:27:17.126Z,7.10
2022-10-20T04:29:46.728Z,6.93
2022-10-20T04:32:13.546Z,7.07
2022-10-20T04:34:40.278Z,7.25
2022-10-20T04:37:06.943Z,7.22
2022-10-20T04:39:33.747Z,6.72
2022-10-20T04:42:00.790Z,6.55
2022-10-20T04:44:27.503Z,7.05
2022-10-20T04:46:55.838Z,6.95
2022-10-20T04:49:22.712Z,6.78
2022-10-20T04:51:49.452Z,7.07
2022-10-20T04:54:16.243Z,7.38
2022-10-20T04:56:42.959Z,7.10
2022-10-20T04:59:12.732Z,7.25
2022-10-20T05:01:40.587Z,7.90
2022-10-20T05:04:10.537Z,6.78
2022-10-20T05:06:37.862Z,7.03
2022-10-20T05:09:20.532Z,7.93
2022-10-20T05:11:47.257Z,7.68
2022-10-20T05:14:14.176Z,8.45
2022-10-20T05:16:41.446Z,8.43
2022-10-20T05:19:09.607Z,9.77
2022-10-20T05:21:36.394Z,8.10
2022-10-20T05:24:05.171Z,9.27
2022-10-20T05:26:34.953Z,10.35
2022-10-20T05:29:03.924Z,8.90
2022-10-20T05:31:31.040Z,10.02
2022-10-20T05:33:58.218Z,10.23
2022-10-20T05:36:27.513Z,10.25
2022-10-20T05:38:55.910Z,9.65
2022-10-20T05:41:25.230Z,9.90
2022-10-20T05:43:54.197Z,10.55
2022-10-20T05:46:21.140Z,11.02
2022-10-20T05:48:47.938Z,9.90
2022-10-20T05:51:18.077Z,12.10
2022-10-20T05:53:49.580Z,10.95
2022-10-20T05:56:17.661Z,11.13
2022-10-20T05:58:45.228Z,11.98
2022-10-20T06:01:18.597Z,12.02
2022-10-20T06:03:48.150Z,12.30
2022-10-20T06:06:15.540Z,11.50
2022-10-20T06:08:42.466Z,11.15
2022-10-20T06:11:12.267Z,11.80
2022-10-20T06:13:39.380Z,11.45
2022-10-20T06:16:09.240Z,10.85
2022-10-20T06:18:38.786Z,11.40
2022-10-20T06:21:07.698Z,11.15
2022-10-20T06:23:34.762Z,11.85
2022-10-20T06:26:03.226Z,12.68
2022-10-20T06:28:32.911Z,11.55
2022-10-20T06:31:00.424Z,11.57
2022-10-20T06:33:31.243Z,12.43
2022-10-20T06:36:01.685Z,11.68
2022-10-20T06:38:28.677Z,11.85
2022-10-20T06:40:55.466Z,11.43
2022-10-20T06:43:22.787Z,12.15
2022-10-20T06:45:59.037Z,11.43
2022-10-20T06:48:26.785Z,11.10
2022-10-20T06:50:56.931Z,11.10
2022-10-20T06:53:24.061Z,11.18
2022-10-20T06:55:56.235Z,12.35
2022-10-20T06:58:22.954Z,11.32
2022-10-20T07:00:59.982Z,11.55
2022-10-20T07:03:27.207Z,12.27
2022-10-20T07:05:54.168Z,12.65
2022-10-20T07:08:21.787Z,12.10
2022-10-20T07:10:57.128Z,11.48
2022-10-20T07:13:24.336Z,11.82
2022-10-20T07:15:53.367Z,12.20
2022-10-20T07:18:22.827Z,12.38
2022-10-20T07:20:50.153Z,13.07
2022-10-20T07:23:18.146Z,12.63
2022-10-20T07:25:45.542Z,11.90
2022-10-20T07:28:13.160Z,12.13
2022-10-20T07:30:41.385Z,11.98
2022-10-20T07:33:09.434Z,13.18
2022-10-20T07:35:38.504Z,12.38
2022-10-20T07:38:06.120Z,12.68
2022-10-20T07:40:33.911Z,12.73
2022-10-20T07:43:01.537Z,12.90
2022-10-20T07:45:28.816Z,13.15
2022-10-20T07:47:56.357Z,12.35
2022-10-20T07:50:24.432Z,13.00
2022-10-20T07:52:53.763Z,13.02
2022-10-20T07:55:37.726Z,14.35
2022-10-20T07:58:06.314Z,14.48
2022-10-20T08:00:34.718Z,14.05
2022-10-20T08:03:03.240Z,13.38
2022-10-20T08:05:31.812Z,14.05
2022-10-20T08:08:05.634Z,14.02
2022-10-20T08:10:33.095Z,13.52
2022-10-20T08:13:01.194Z,14.32
2022-10-20T08:15:28.922Z,14.93
2022-10-20T08:17:57.041Z,14.65
2022-10-20T08:20:45.959Z,15.25
2022-10-20T08:23:16.459Z,14.65
2022-10-20T08:25:44.997Z,14.75
2022-10-20T08:28:12.042Z,15.57
2022-10-20T08:30:41.153Z,15.35
2022-10-20T08:33:09.972Z,15.77
2022-10-20T08:35:38.805Z,15.57
2022-10-20T08:38:06.942Z,15.00
2022-10-20T08:40:38.157Z,15.30
2022-10-20T08:43:05.306Z,15.88
2022-10-20T08:45:38.186Z,15.05
2022-10-20T08:48:09.903Z,15.80
2022-10-20T08:50:40.759Z,16.67
2022-10-20T08:53:12.129Z,16.25
2022-10-20T08:55:40.660Z,16.52
2022-10-20T08:58:13.122Z,15.93
2022-10-20T09:00:40.693Z,15.43
2022-10-20T09:03:16.064Z,16.05
2022-10-20T09:05:47.371Z,16.27
2022-10-20T09:08:14.632Z,16.05
2022-10-20T09:10:48.044Z,16.08
2022-10-20T09:13:21.124Z,16.60
2022-10-20T09:15:49.139Z,16.15
2022-10-20T09:18:16.872Z,17.45
2022-10-20T09:20:48.622Z,16.58
2022-10-20T09:23:39.256Z,17.33
2022-10-20T09:26:24.791Z,16.23
2022-10-20T09:29:12.932Z,17.27
2022-10-20T09:31:42.789Z,17.25
2022-10-20T09:34:26.925Z,18.27
2022-10-20T09:37:11.539Z,17.45
2022-10-20T09:39:43.235Z,17.63
2022-10-20T09:42:16.031Z,17.90
2022-10-20T09:44:49.704Z,17.95
2022-10-20T09:47:17.970Z,18.10
2022-10-20T09:49:46.470Z,18.20
2022-10-20T09:52:18.343Z,18.98
2022-10-20T09:54:48.008Z,18.85
2022-10-20T09:57:20.876Z,18.20
2022-10-20T09:59:50.536Z,18.48
2022-10-20T10:02:30.271Z,19.73
2022-10-20T10:05:16.228Z,19.52
2022-10-20T10:07:43.424Z,18.90
2022-10-20T10:10:25.473Z,18.88
2022-10-20T10:12:55.219Z,18.17
2022-10-20T10:15:27.540Z,17.95
2022-10-20T10:17:55.741Z,20.15
2022-10-20T10:20:34.999Z,20.20
2022-10-20T10:23:18.486Z,19.33
2022-10-20T10:25:45.401Z,18.85
2022-10-20T10:28:29.428Z,20.25
2022-10-20T10:31:22.557Z,20.35
2022-10-20T10:33:52.549Z,19.83
2022-10-20T10:36:29.822Z,19.80
2022-10-20T10:38:58.665Z,21.13
2022-10-20T10:41:38.310Z,21.58
2022-10-20T10:44:15.697Z,20.38
2022-10-20T10:46:48.763Z,21.25
2022-10-20T10:49:33.627Z,19.40
2022-10-20T10:52:13.795Z,19.98
2022-10-20T10:55:05.884Z,20.10
2022-10-20T10:57:49.665Z,20.20
2022-10-20T11:00:28.010Z,20.58
2022-10-20T11:03:14.280Z,20.65
2022-10-20T11:06:02.261Z,20.08
2022-10-20T11:08:46.636Z,20.05
2022-10-20T11:11:29.948Z,20.25
2022-10-20T11:14:14.880Z,20.40
2022-10-20T11:16:50.947Z,20.35
2022-10-20T11:19:45.327Z,21.63
2022-10-20T11:22:21.219Z,20.17
2022-10-20T11:25:04.083Z,20.85
2022-10-20T11:27:34.624Z,19.90
2022-10-20T11:30:08.284Z,19.60
2022-10-20T11:32:40.171Z,20.23
2022-10-20T11:35:16.804Z,21.55
2022-10-20T11:37:48.355Z,20.50
2022-10-20T11:40:23.326Z,21.27
2022-10-20T11:42:57.480Z,22.30
2022-10-20T11:45:39.892Z,20.73
2022-10-20T11:48:20.067Z,21.30
2022-10-20T11:50:56.249Z,20.60
2022-10-20T11:53:39.317Z,20.45
2022-10-20T11:56:24.463Z,20.23
2022-10-20T11:59:13.282Z,20.42
2022-10-20T12:01:59.151Z,22.67
2022-10-20T12:04:44.091Z,21.33
2022-10-20T12:07:41.866Z,20.98
2022-10-20T12:10:28.721Z,20.77
2022-10-20T12:13:07.509Z,21.33
2022-10-20T12:15:44.886Z,21.13
2022-10-20T12:18:22.599Z,21.75
2022-10-20T12:20:56.685Z,21.85
2022-10-20T12:24:03.416Z,20.90
2022-10-20T12:27:15.451Z,22.00
2022-10-20T12:30:00.550Z,21.08
2022-10-20T12:32:53.282Z,21.08
2022-10-20T12:35:43.939Z,21.70
2022-10-20T12:38:18.349Z,21.80
2022-10-20T12:40:51.715Z,22.42
2022-10-20T12:43:28.974Z,23.55
2022-10-20T12:45:59.839Z,22.50
2022-10-20T12:48:27.555Z,23.17
2022-10-20T12:51:06.038Z,22.95
2022-10-20T12:53:38.683Z,23.10
2022-10-20T12:56:08.827Z,22.67
2022-10-20T12:58:37.112Z,23.73
2022-10-20T13:01:08.724Z,23.50
2022-10-20T13:03:39.870Z,25.27
2022-10-20T13:06:44.642Z,23.83
2022-10-20T13:12:01.564Z,21.80
2022-10-20T13:14:58.717Z,21.65
2022-10-20T13:17:58.241Z,20.67
2022-10-20T13:20:30.759Z,22.75
2022-10-20T13:25:40.366Z,23.23
2022-10-20T13:28:18.396Z,22.15
2022-10-20T13:31:17.449Z,24.20
2022-10-20T13:34:04.039Z,23.98
2022-10-20T13:36:44.689Z,22.65
2022-10-20T13:39:20.099Z,24.20
2022-10-20T13:41:54.226Z,22.40
2022-10-20T13:44:32.060Z,25.10
2022-10-20T13:47:09.136Z,26.35
2022-10-20T13:49:52.969Z,24.85
2022-10-20T13:52:26.079Z,23.85
2022-10-20T13:54:53.033Z,24.40
2022-10-20T13:57:30.931Z,23.70
2022-10-20T14:00:00.231Z,23.70
2022-10-20T14:02:29.434Z,23.52
2022-10-20T14:05:09.268Z,22.95
2022-10-20T14:07:38.112Z,22.02
2022-10-20T14:10:06.618Z,23.40
2022-10-20T14:12:36.161Z,22.80
2022-10-20T14:15:08.836Z,23.20
2022-10-20T14:17:40.532Z,23.83
2022-10-20T14:20:20.027Z,22.80
2022-10-20T14:22:48.422Z,23.45
2022-10-20T14:25:18.147Z,22.85
2022-10-20T14:27:47.863Z,23.05
2022-10-20T14:30:17.382Z,23.67
2022-10-20T14:32:46.763Z,22.52
2022-10-20T14:35:27.252Z,22.00
2022-10-20T14:37:59.778Z,23.38
2022-10-20T14:40:30.602Z,22.83
2022-10-20T14:43:03.253Z,24.08
2022-10-20T14:48:03.766Z,23.92
2022-10-20T14:50:35.837Z,23.98
2022-10-20T14:53:30.655Z,24.92
2022-10-20T14:56:02.832Z,23.98
2022-10-20T14:58:39.108Z,24.15
2022-10-20T15:01:25.168Z,24.80
2022-10-20T15:04:15.904Z,24.75
2022-10-20T15:06:43.431Z,25.60
2022-10-20T15:09:25.636Z,25.70
2022-10-20T15:11:54.278Z,24.83
2022-10-20T15:14:24.485Z,23.88
2022-10-20T15:16:51.458Z,24.73
2022-10-20T15:19:30.025Z,24.90
2022-10-20T15:22:02.128Z,24.20
2022-10-20T15:24:30.852Z,24.75
2022-10-20T15:26:58.232Z,25.27
2022-10-20T15:29:27.463Z,25.50
2022-10-20T15:31:55.121Z,24.80
2022-10-20T15:34:22.287Z,25.75
2022-10-20T15:36:51.053Z,32.50
2022-10-20T15:39:19.151Z,26.27
2022-10-20T15:41:48.005Z,23.52
2022-10-20T15:44:19.590Z,24.17
2022-10-20T15:46:50.298Z,24.80
2022-10-20T15:49:17.096Z,25.73
2022-10-20T15:51:46.251Z,24.80
2022-10-20T15:54:15.038Z,25.15
2022-10-20T15:56:42.365Z,26.95
2022-10-20T15:59:10.426Z,26.48
2022-10-20T16:01:37.980Z,26.83
2022-10-20T16:04:19.354Z,28.65
2022-10-20T16:06:47.059Z,25.80
2022-10-20T16:09:16.131Z,26.95
2022-10-20T16:11:43.553Z,27.10
2022-10-20T16:14:11.448Z,25.75
2022-10-20T16:16:39.187Z,25.98
2022-10-20T16:19:06.876Z,24.80
2022-10-20T16:21:37.120Z,25.13
2022-10-20T16:24:05.056Z,25.98
2022-10-20T16:26:32.007Z,25.40
2022-10-20T16:29:00.407Z,24.63
2022-10-20T16:31:27.465Z,24.30
2022-10-20T16:33:54.682Z,24.50
2022-10-20T16:36:21.949Z,24.63
2022-10-20T16:38:55.351Z,23.83
2022-10-20T16:41:22.601Z,23.92
2022-10-20T16:43:49.380Z,24.73
2022-10-20T16:46:16.726Z,25.73
2022-10-20T16:48:47.692Z,26.58
2022-10-20T16:51:16.160Z,27.05
2022-10-20T16:53:44.049Z,28.00
2022-10-20T16:56:15.438Z,29.40
2022-10-20T16:58:45.854Z,28.02
2022-10-20T17:01:14.224Z,28.73
2022-10-20T17:06:12.527Z,28.02
2022-10-20T17:08:40.888Z,29.02
2022-10-20T17:11:11.584Z,27.85
2022-10-20T17:13:40.517Z,29.33
2022-10-20T17:16:11.498Z,29.65
2022-10-20T17:18:38.890Z,29.75
2022-10-20T17:21:07.213Z,30.83
2022-10-20T17:23:40.106Z,29.70
2022-10-20T17:26:18.311Z,30.25
2022-10-20T17:28:48.989Z,28.70
2022-10-20T17:31:18.679Z,29.63
2022-10-20T17:33:46.798Z,29.33
2022-10-20T17:36:14.909Z,29.50
2022-10-20T17:38:42.816Z,29.25
2022-10-20T17:41:11.086Z,29.77
2022-10-20T17:43:38.819Z,29.33
2022-10-20T17:46:10.567Z,33.95
2022-10-20T17:48:39.775Z,34.33
2022-10-20T17:51:09.282Z,42.95
2022-10-20T17:53:38.261Z,30.60
2022-10-20T17:56:07.341Z,30.25
2022-10-20T17:58:34.659Z,29.63
2022-10-20T18:01:10.354Z,28.70
2022-10-20T18:03:37.091Z,28.02
2022-10-20T18:06:09.418Z,28.25
2022-10-20T18:08:37.043Z,27.65
2022-10-20T18:11:08.549Z,29.63
2022-10-20T18:13:36.464Z,28.52
2022-10-20T18:16:06.460Z,29.48
2022-10-20T18:18:34.956Z,29.90
2022-10-20T18:21:02.777Z,29.45
2022-10-20T18:23:31.757Z,28.58
2022-10-20T18:26:06.859Z,29.77
2022-10-20T18:28:34.468Z,29.33
2022-10-20T18:31:05.510Z,30.23
2022-10-20T18:33:32.705Z,30.25
2022-10-20T18:36:03.784Z,30.00
2022-10-20T18:38:31.138Z,29.05
2022-10-20T18:41:04.990Z,28.80
2022-10-20T18:46:01.209Z,28.73
2022-10-20T18:48:28.373Z,31.70
2022-10-20T18:50:58.011Z,31.95
2022-10-20T18:53:28.020Z,32.97
2022-10-20T18:56:00.449Z,34.60
2022-10-20T18:58:28.188Z,32.85
2022-10-20T19:01:00.841Z,30.85
2022-10-20T19:03:32.665Z,30.85
2022-10-20T19:06:03.370Z,28.40
2022-10-20T19:08:33.284Z,28.65
2022-10-20T19:11:01.298Z,29.05
2022-10-20T19:13:31.385Z,28.13
2022-10-20T19:16:02.723Z,26.40
2022-10-20T19:18:30.255Z,25.77
2022-10-20T19:20:59.273Z,26.65
2022-10-20T19:23:28.116Z,26.15
2022-10-20T19:26:09.087Z,26.35
2022-10-20T19:28:38.505Z,27.45
2022-10-20T19:31:20.579Z,28.40
2022-10-20T19:33:52.368Z,30.00
2022-10-20T19:36:21.159Z,30.35
2022-10-20T19:38:48.504Z,32.22
2022-10-20T19:41:17.806Z,32.83
2022-10-20T19:43:45.173Z,34.53
2022-10-20T19:46:18.722Z,33.20
2022-10-20T19:48:47.047Z,32.88
2022-10-20T19:51:15.967Z,33.17
2022-10-20T19:53:43.433Z,34.50
2022-10-20T19:56:11.661Z,34.80
2022-10-20T19:58:44.177Z,36.45
2022-10-20T20:01:13.668Z,37.03
2022-10-20T20:03:40.473Z,37.08
2022-10-20T20:06:10.752Z,39.30
2022-10-20T20:08:39.951Z,38.95
2022-10-20T20:11:07.734Z,40.22
2022-10-20T20:13:34.806Z,38.67
2022-10-20T20:16:09.501Z,41.80
2022-10-20T20:18:38.097Z,43.38
2022-10-20T20:21:05.842Z,39.38
2022-10-20T20:23:47.540Z,41.35
2022-10-20T20:26:21.884Z,39.20
2022-10-20T20:28:48.727Z,39.58
2022-10-20T20:31:17.139Z,38.35
2022-10-20T20:33:44.005Z,38.13
2022-10-20T20:36:11.017Z,36.97
2022-10-20T20:38:39.224Z,117.25
2022-10-20T20:41:10.314Z,37.58
2022-10-20T20:43:38.248Z,37.33
2022-10-20T20:46:06.230Z,36.53
2022-10-20T20:48:35.279Z,36.92
2022-10-20T20:51:02.842Z,38.17
2022-10-20T20:53:30.357Z,37.92
2022-10-20T20:55:59.561Z,39.08
2022-10-20T20:58:28.336Z,38.30
2022-10-20T21:01:02.196Z,38.30
2022-10-20T21:05:57.936Z,37.30
2022-10-20T21:08:25.365Z,40.17
2022-10-20T21:10:52.180Z,39.15
2022-10-20T21:13:18.950Z,40.42
2022-10-20T21:15:45.729Z,39.67
2022-10-20T21:18:12.507Z,39.08
2022-10-20T21:20:39.697Z,39.28
2022-10-20T21:23:07.755Z,49.90
2022-10-20T21:25:34.699Z,36.53
2022-10-20T21:28:01.518Z,37.03
2022-10-20T21:30:28.370Z,35.67
2022-10-20T21:32:55.124Z,35.40
2022-10-20T21:35:21.924Z,35.35
2022-10-20T21:37:48.825Z,34.22
2022-10-20T21:40:17.211Z,36.83
2022-10-20T21:42:44.970Z,34.58
2022-10-20T21:45:15.433Z,37.40
2022-10-20T21:47:45.092Z,35.55
2022-10-20T21:50:12.571Z,36.78
2022-10-20T21:52:39.985Z,35.05
2022-10-20T21:55:07.954Z,36.22
2022-10-20T21:57:37.869Z,35.55
2022-10-20T22:00:05.969Z,35.55
2022-10-20T22:02:32.911Z,36.30
2022-10-20T22:04:59.754Z,37.45
2022-10-20T22:07:29.715Z,38.78
2022-10-20T22:09:57.687Z,36.80
2022-10-20T22:12:24.776Z,37.80
2022-10-20T22:14:53.092Z,39.15
2022-10-20T22:17:22.067Z,40.00
2022-10-20T22:19:50.753Z,37.65
2022-10-20T22:22:18.725Z,45.40
2022-10-20T22:24:45.906Z,42.55
2022-10-20T22:27:25.080Z,36.92
2022-10-20T22:30:01.530Z,37.67
2022-10-20T22:32:28.391Z,37.42
2022-10-20T22:34:55.091Z,34.83
2022-10-20T22:37:22.083Z,36.10
2022-10-20T22:39:49.517Z,33.53
2022-10-20T22:42:17.641Z,35.10
2022-10-20T22:44:45.619Z,34.42
2022-10-20T22:47:14.041Z,33.30
2022-10-20T22:49:41.028Z,33.50
2022-10-20T22:52:07.697Z,32.85
2022-10-20T22:54:34.467Z,35.08
2022-10-20T22:57:01.858Z,32.97
2022-10-20T22:59:28.631Z,33.35
2022-10-20T23:01:55.821Z,32.53
2022-10-20T23:04:24.206Z,33.05
2022-10-20T23:06:50.838Z,31.45
2022-10-20T23:09:17.695Z,32.42
2022-10-20T23:11:44.440Z,30.98
2022-10-20T23:14:11.132Z,31.85
2022-10-20T23:16:37.835Z,30.55
2022-10-20T23:19:04.577Z,28.65
2022-10-20T23:21:32.703Z,24.65
2022-10-20T23:23:59.359Z,23.48
2022-10-20T23:26:26.174Z,22.02
2022-10-20T23:28:53.052Z,19.92
2022-10-20T23:31:21.895Z,18.58
2022-10-20T23:33:53.857Z,17.77
2022-10-20T23:36:21.067Z,17.73
2022-10-20T23:38:49.109Z,14.80
2022-10-20T23:41:15.980Z,12.35
2022-10-20T23:43:42.853Z,8.90
2022-10-20T23:46:09.619Z,8.05
2022-10-20T23:48:36.362Z,5.90
2022-10-20T23:51:03.136Z,4.07
2022-10-20T23:53:30.199Z,4.03
2022-10-20T23:55:58.206Z,2.90
2022-10-20T23:58:25.127Z,2.90
